»·PEaware :: N377KQ KYKM-KBFI

N377KQ :: KYKM-KBFI

FLIGHT INFORMATION

Flight Status: Arrived
Operator: Privately registered:
United States
More flights under this callsign
Pilot: Christian A. (580)
Aircraft: Unknown
(KODI)
More flights by this aircraft type
Origin: KYKM Yakima Air Term/Mcallister
United States
Destination: KBFI Boeing Field/King Co Intl
United States
More flights between these airports :: More routes between these airports
Route: WENAS7 TITON V4 BLAKO
File this flight plan on PilotEdge
Remarks:
Altitude:
(Current/Filed)
10,000ft
Speed:
(Current/Filed)
190kts
Departed: 29-Dec-17 07:20 PM
Arrived: 29-Dec-17 08:07 PM
Distance/Time
Traveled:
92nm/0:47
Distance/Time
To Go:
Arrived

Flight Plot

Page will automatically refresh every two minutes.

Flight plan parsing failed; only flown route is shown


Map Options




Map Legend


Flown Route
Filed Route
Departure Airport
Arrival Airport
Navaid (VOR, NDB)
Fix

Horizontal Profiles

Position Reports

Time Latitude Longitude Heading Altitude Ground
Speed
29-Dec-17 19:12 46.569816 -120.541844 270 1071ft 0kts
29-Dec-17 19:13 46.569816 -120.541844 270 1071ft 0kts
29-Dec-17 19:14 46.569816 -120.541844 270 1071ft 0kts
29-Dec-17 19:15 46.569816 -120.541844 270 1071ft 0kts
29-Dec-17 19:16 46.569816 -120.541844 270 1071ft 0kts
29-Dec-17 19:17 46.569816 -120.541844 270 1071ft 0kts
29-Dec-17 19:18 46.569816 -120.541844 270 1071ft 0kts
29-Dec-17 19:19 46.569816 -120.541844 270 1071ft 0kts
29-Dec-17 19:20 46.569816 -120.541844 270 1071ft 0kts
29-Dec-17 19:21 46.569816 -120.541844 270 1071ft 0kts
29-Dec-17 19:22 46.569716 -120.542087 190 1072ft 8kts
29-Dec-17 19:23 46.567575 -120.535075 109 1071ft 25kts
29-Dec-17 19:24 46.566653 -120.531579 157 1071ft 0kts
29-Dec-17 19:25 46.566653 -120.531579 157 1071ft 0kts
29-Dec-17 19:26 46.569396 -120.546680 293 1330ft 117kts
29-Dec-17 19:27 46.580367 -120.592714 280 3198ft 124kts
29-Dec-17 19:28 46.583627 -120.638673 273 5256ft 105kts
29-Dec-17 19:29 46.599507 -120.661048 12 6955ft 106kts
29-Dec-17 19:30 46.629631 -120.646101 22 8521ft 124kts
29-Dec-17 19:31 46.661236 -120.630429 330 9986ft 133kts
29-Dec-17 19:32 46.686590 -120.686125 305 10003ft 183kts
29-Dec-17 19:33 46.715387 -120.748138 306 9999ft 192kts
29-Dec-17 19:34 46.745695 -120.812383 305 9999ft 193kts
29-Dec-17 19:35 46.775954 -120.876324 306 9999ft 191kts
29-Dec-17 19:36 46.806081 -120.940237 306 9998ft 191kts
29-Dec-17 19:37 46.836075 -121.003946 306 9999ft 189kts
29-Dec-17 19:38 46.865320 -121.066290 305 9998ft 183kts
29-Dec-17 19:39 46.893604 -121.126699 306 9998ft 177kts
29-Dec-17 19:40 46.921003 -121.185341 305 9998ft 172kts
29-Dec-17 19:41 46.947520 -121.242202 305 9999ft 169kts
29-Dec-17 19:42 46.973911 -121.298984 307 9997ft 168kts
29-Dec-17 19:43 46.999345 -121.353723 306 9999ft 163kts
29-Dec-17 19:44 47.023925 -121.406806 306 9996ft 157kts
29-Dec-17 19:45 47.047827 -121.458534 306 9997ft 152kts
29-Dec-17 19:46 47.071175 -121.509178 307 9996ft 147kts
29-Dec-17 19:47 47.093335 -121.557261 305 9999ft 141kts
29-Dec-17 19:48 47.114090 -121.602451 307 9832ft 152kts
29-Dec-17 19:49 47.138379 -121.655105 306 9239ft 164kts
29-Dec-17 19:50 47.162145 -121.706783 305 8705ft 169kts
29-Dec-17 19:51 47.188886 -121.765088 305 8128ft 177kts
29-Dec-17 19:52 47.217033 -121.826774 306 7480ft 182kts
29-Dec-17 19:53 47.255136 -121.870005 325 6999ft 181kts
29-Dec-17 19:54 47.295498 -121.912855 325 6999ft 179kts
29-Dec-17 19:55 47.335790 -121.955684 326 6999ft 179kts
29-Dec-17 19:56 47.375878 -121.998152 326 6999ft 179kts
29-Dec-17 19:57 47.417431 -122.042311 326 6486ft 187kts
29-Dec-17 19:58 47.455688 -122.082656 326 6090ft 186kts
29-Dec-17 19:59 47.496255 -122.125939 326 5336ft 177kts
29-Dec-17 20:00 47.535977 -122.168456 325 4532ft 176kts
29-Dec-17 20:01 47.574931 -122.210408 326 3995ft 166kts
29-Dec-17 20:02 47.611421 -122.249645 327 3790ft 166kts
29-Dec-17 20:03 47.648800 -122.289830 326 2998ft 165kts
29-Dec-17 20:04 47.684406 -122.328155 326 3000ft 159kts
29-Dec-17 20:05 47.720242 -122.366946 326 3000ft 161kts
29-Dec-17 20:06 47.751797 -122.411688 273 3004ft 168kts
29-Dec-17 20:07 47.715180 -122.442355 186 3000ft 169kts
29-Dec-17 20:08 47.673359 -122.424449 147 2972ft 156kts
29-Dec-17 20:09 47.635115 -122.391892 147 2177ft 159kts
29-Dec-17 20:10 47.597807 -122.360138 148 1337ft 154kts
29-Dec-17 20:11 47.562106 -122.329771 146 543ft 126kts
29-Dec-17 20:12 47.538451 -122.309614 149 24ft 77kts
29-Dec-17 20:13 47.534126 -122.302965 346 19ft 17kts
29-Dec-17 20:14 47.536185 -122.303867 144 19ft 0kts
29-Dec-17 20:15 47.536185 -122.303867 144 20ft 0kts
29-Dec-17 20:16 47.536185 -122.303867 144 20ft 0kts
29-Dec-17 20:17 47.536185 -122.303867 144 20ft 0kts
29-Dec-17 20:18 47.536185 -122.303867 144 20ft 0kts
29-Dec-17 20:19 47.536185 -122.303867 144 20ft 0kts
29-Dec-17 20:20 47.536185 -122.303867 144 20ft 0kts
29-Dec-17 20:21 47.536185 -122.303867 144 20ft 0kts

Navigation Log

Ident Type
Flight plan parsing failed, navigation log unavailable